sensor_id;sensor_type;location;lat;lon;timestamp;pressure;altitude;pressure_sealevel;temperature;humidity
29505;BME280;16452;54.174;12.092;2022-08-18T00:01:42;101044.38;;;26.18;82.73
29505;BME280;16452;54.174;12.092;2022-08-18T00:04:10;101049.81;;;26.33;82.49
29505;BME280;16452;54.174;12.092;2022-08-18T00:06:36;101053.84;;;26.37;82.13
29505;BME280;16452;54.174;12.092;2022-08-18T00:09:06;101057.97;;;26.39;81.96
29505;BME280;16452;54.174;12.092;2022-08-18T00:11:38;101068.75;;;26.23;82.46
29505;BME280;16452;54.174;12.092;2022-08-18T00:14:05;101085.28;;;26.10;83.47
29505;BME280;16452;54.174;12.092;2022-08-18T00:16:31;101102.22;;;26.03;84.67
29505;BME280;16452;54.174;12.092;2022-08-18T00:18:56;101099.44;;;25.48;88.73
29505;BME280;16452;54.174;12.092;2022-08-18T00:21:22;101115.59;;;24.89;91.46
29505;BME280;16452;54.174;12.092;2022-08-18T00:23:48;101109.53;;;24.79;91.11
29505;BME280;16452;54.174;12.092;2022-08-18T00:26:14;101110.47;;;24.46;92.45
29505;BME280;16452;54.174;12.092;2022-08-18T00:28:40;101112.84;;;24.65;91.77
29505;BME280;16452;54.174;12.092;2022-08-18T00:31:06;101119.22;;;24.30;93.29
29505;BME280;16452;54.174;12.092;2022-08-18T00:33:31;101110.38;;;24.80;91.88
29505;BME280;16452;54.174;12.092;2022-08-18T00:35:57;101109.59;;;24.37;92.31
29505;BME280;16452;54.174;12.092;2022-08-18T00:38:23;101099.31;;;24.17;93.54
29505;BME280;16452;54.174;12.092;2022-08-18T00:40:50;101105.81;;;24.56;89.46
29505;BME280;16452;54.174;12.092;2022-08-18T00:43:42;101111.22;;;24.80;88.72
29505;BME280;16452;54.174;12.092;2022-08-18T00:46:16;101105.44;;;25.01;88.13
29505;BME280;16452;54.174;12.092;2022-08-18T00:48:42;101104.06;;;24.81;87.02
29505;BME280;16452;54.174;12.092;2022-08-18T00:51:27;101120.78;;;25.07;86.05
29505;BME280;16452;54.174;12.092;2022-08-18T00:54:15;101120.41;;;24.86;85.51
29505;BME280;16452;54.174;12.092;2022-08-18T00:56:46;101114.59;;;24.90;83.59
29505;BME280;16452;54.174;12.092;2022-08-18T00:59:40;101109.44;;;25.13;82.19
29505;BME280;16452;54.174;12.092;2022-08-18T01:02:13;101102.13;;;25.15;82.20
29505;BME280;16452;54.174;12.092;2022-08-18T01:05:03;101106.13;;;25.03;82.85
29505;BME280;16452;54.174;12.092;2022-08-18T01:07:44;101103.47;;;24.53;84.45
29505;BME280;16452;54.174;12.092;2022-08-18T01:10:12;101106.75;;;24.89;84.37
29505;BME280;16452;54.174;12.092;2022-08-18T01:12:48;101094.66;;;24.61;86.50
29505;BME280;16452;54.174;12.092;2022-08-18T01:15:15;101087.72;;;24.84;85.12
29505;BME280;16452;54.174;12.092;2022-08-18T01:17:41;101088.63;;;24.92;84.96
29505;BME280;16452;54.174;12.092;2022-08-18T01:20:38;101088.22;;;24.87;85.10
29505;BME280;16452;54.174;12.092;2022-08-18T01:23:25;101085.88;;;24.76;85.94
29505;BME280;16452;54.174;12.092;2022-08-18T01:25:52;101080.97;;;24.47;89.43
29505;BME280;16452;54.174;12.092;2022-08-18T01:28:32;101083.63;;;24.39;89.97
29505;BME280;16452;54.174;12.092;2022-08-18T01:31:00;101089.06;;;24.30;91.02
29505;BME280;16452;54.174;12.092;2022-08-18T01:33:31;101089.91;;;24.22;91.32
29505;BME280;16452;54.174;12.092;2022-08-18T01:36:01;101079.28;;;24.38;90.29
29505;BME280;16452;54.174;12.092;2022-08-18T01:38:29;101087.06;;;23.98;92.44
29505;BME280;16452;54.174;12.092;2022-08-18T01:40:57;101082.63;;;24.06;90.69
29505;BME280;16452;54.174;12.092;2022-08-18T01:43:24;101067.69;;;23.80;91.35
29505;BME280;16452;54.174;12.092;2022-08-18T01:45:50;101065.09;;;24.22;89.43
29505;BME280;16452;54.174;12.092;2022-08-18T01:48:16;101057.63;;;24.41;89.13
29505;BME280;16452;54.174;12.092;2022-08-18T01:50:42;101048.28;;;23.95;92.63
29505;BME280;16452;54.174;12.092;2022-08-18T01:53:10;101045.97;;;23.66;95.44
29505;BME280;16452;54.174;12.092;2022-08-18T01:55:39;101039.63;;;23.59;95.97
29505;BME280;16452;54.174;12.092;2022-08-18T01:58:10;101026.78;;;23.55;95.81
29505;BME280;16452;54.174;12.092;2022-08-18T02:00:37;101032.72;;;23.23;98.10
29505;BME280;16452;54.174;12.092;2022-08-18T02:03:06;101028.00;;;23.43;95.97
29505;BME280;16452;54.174;12.092;2022-08-18T02:05:38;101035.91;;;23.09;97.02
29505;BME280;16452;54.174;12.092;2022-08-18T02:08:06;101034.47;;;23.14;96.74
29505;BME280;16452;54.174;12.092;2022-08-18T02:10:32;101033.56;;;23.06;95.60
29505;BME280;16452;54.174;12.092;2022-08-18T02:12:58;101030.44;;;23.10;95.14
29505;BME280;16452;54.174;12.092;2022-08-18T02:15:24;101024.81;;;23.13;94.96
29505;BME280;16452;54.174;12.092;2022-08-18T02:17:50;101030.97;;;22.96;94.25
29505;BME280;16452;54.174;12.092;2022-08-18T02:20:17;101029.31;;;22.95;95.16
29505;BME280;16452;54.174;12.092;2022-08-18T02:22:45;101031.78;;;22.43;96.08
29505;BME280;16452;54.174;12.092;2022-08-18T02:25:13;101028.13;;;22.44;96.46
29505;BME280;16452;54.174;12.092;2022-08-18T02:27:39;101027.50;;;22.96;93.19
29505;BME280;16452;54.174;12.092;2022-08-18T02:30:12;101030.63;;;22.91;93.05
29505;BME280;16452;54.174;12.092;2022-08-18T02:32:38;101032.97;;;22.94;93.93
29505;BME280;16452;54.174;12.092;2022-08-18T02:35:05;101023.72;;;23.24;93.45
29505;BME280;16452;54.174;12.092;2022-08-18T02:37:32;101022.88;;;22.98;94.77
29505;BME280;16452;54.174;12.092;2022-08-18T02:39:58;101024.22;;;23.02;95.50
29505;BME280;16452;54.174;12.092;2022-08-18T02:42:23;101010.91;;;23.19;94.42
29505;BME280;16452;54.174;12.092;2022-08-18T02:44:50;101016.22;;;22.66;97.80
29505;BME280;16452;54.174;12.092;2022-08-18T02:47:19;101008.66;;;22.71;97.60
29505;BME280;16452;54.174;12.092;2022-08-18T02:49:45;101012.75;;;22.48;100.00
29505;BME280;16452;54.174;12.092;2022-08-18T02:52:11;101009.78;;;22.51;100.00
29505;BME280;16452;54.174;12.092;2022-08-18T02:54:37;101005.19;;;22.53;100.00
29505;BME280;16452;54.174;12.092;2022-08-18T02:57:09;101004.66;;;22.85;98.91
29505;BME280;16452;54.174;12.092;2022-08-18T02:59:36;101003.66;;;22.68;100.00
29505;BME280;16452;54.174;12.092;2022-08-18T03:02:04;100992.66;;;22.63;100.00
29505;BME280;16452;54.174;12.092;2022-08-18T03:04:34;100992.41;;;22.57;100.00
29505;BME280;16452;54.174;12.092;2022-08-18T03:07:03;100992.59;;;22.73;99.46
29505;BME280;16452;54.174;12.092;2022-08-18T03:09:30;100987.56;;;22.70;100.00
29505;BME280;16452;54.174;12.092;2022-08-18T03:11:57;100988.91;;;22.38;100.00
29505;BME280;16452;54.174;12.092;2022-08-18T03:14:24;100982.31;;;22.60;100.00
29505;BME280;16452;54.174;12.092;2022-08-18T03:16:49;100987.19;;;22.47;100.00
29505;BME280;16452;54.174;12.092;2022-08-18T03:19:15;100988.41;;;22.70;98.22
29505;BME280;16452;54.174;12.092;2022-08-18T03:21:46;100991.13;;;22.78;96.18
29505;BME280;16452;54.174;12.092;2022-08-18T03:24:12;100994.41;;;22.72;95.46
29505;BME280;16452;54.174;12.092;2022-08-18T03:26:42;100998.59;;;22.75;94.81
29505;BME280;16452;54.174;12.092;2022-08-18T03:29:09;100989.63;;;22.93;94.23
29505;BME280;16452;54.174;12.092;2022-08-18T03:31:35;100996.06;;;22.91;93.50
29505;BME280;16452;54.174;12.092;2022-08-18T03:34:03;100996.19;;;23.07;91.44
29505;BME280;16452;54.174;12.092;2022-08-18T03:36:31;101003.19;;;23.52;89.38
29505;BME280;16452;54.174;12.092;2022-08-18T03:39:01;101003.66;;;23.04;91.14
29505;BME280;16452;54.174;12.092;2022-08-18T03:41:28;100999.63;;;23.00;90.80
29505;BME280;16452;54.174;12.092;2022-08-18T03:43:54;100996.41;;;23.14;90.92
29505;BME280;16452;54.174;12.092;2022-08-18T03:46:21;100985.44;;;22.91;92.67
29505;BME280;16452;54.174;12.092;2022-08-18T03:48:48;100975.13;;;22.88;93.07
29505;BME280;16452;54.174;12.092;2022-08-18T03:51:17;100981.19;;;22.98;93.10
29505;BME280;16452;54.174;12.092;2022-08-18T03:53:44;100978.38;;;23.00;92.70
29505;BME280;16452;54.174;12.092;2022-08-18T03:56:17;100972.44;;;23.31;91.53
29505;BME280;16452;54.174;12.092;2022-08-18T03:58:46;100976.53;;;23.26;91.20
29505;BME280;16452;54.174;12.092;2022-08-18T04:01:14;100979.19;;;23.26;91.66
29505;BME280;16452;54.174;12.092;2022-08-18T04:03:43;100971.53;;;22.97;93.31
29505;BME280;16452;54.174;12.092;2022-08-18T04:06:15;100971.75;;;23.04;93.40
29505;BME280;16452;54.174;12.092;2022-08-18T04:08:41;100977.91;;;23.04;92.94
29505;BME280;16452;54.174;12.092;2022-08-18T04:11:09;100974.22;;;23.23;91.88
29505;BME280;16452;54.174;12.092;2022-08-18T04:13:35;100977.22;;;23.02;92.92
29505;BME280;16452;54.174;12.092;2022-08-18T04:16:02;100972.13;;;23.34;91.69
29505;BME280;16452;54.174;12.092;2022-08-18T04:18:28;100976.31;;;23.71;89.86
29505;BME280;16452;54.174;12.092;2022-08-18T04:20:55;100973.63;;;23.37;90.80
29505;BME280;16452;54.174;12.092;2022-08-18T04:23:23;100976.44;;;23.35;90.89
29505;BME280;16452;54.174;12.092;2022-08-18T04:25:59;100979.16;;;23.44;91.56
29505;BME280;16452;54.174;12.092;2022-08-18T04:28:26;100972.50;;;23.73;90.04
29505;BME280;16452;54.174;12.092;2022-08-18T04:30:53;100977.78;;;23.65;90.50
29505;BME280;16452;54.174;12.092;2022-08-18T04:33:25;100974.66;;;23.44;92.12
29505;BME280;16452;54.174;12.092;2022-08-18T04:35:53;100970.69;;;23.74;90.81
29505;BME280;16452;54.174;12.092;2022-08-18T04:38:19;100966.59;;;23.88;90.27
29505;BME280;16452;54.174;12.092;2022-08-18T04:40:45;100964.53;;;23.73;91.01
29505;BME280;16452;54.174;12.092;2022-08-18T04:43:12;100965.13;;;23.59;91.73
29505;BME280;16452;54.174;12.092;2022-08-18T04:45:44;100963.00;;;23.71;92.48
29505;BME280;16452;54.174;12.092;2022-08-18T04:48:10;100959.59;;;23.87;90.72
29505;BME280;16452;54.174;12.092;2022-08-18T04:50:37;100956.41;;;24.25;88.97
29505;BME280;16452;54.174;12.092;2022-08-18T04:53:04;100954.38;;;24.19;88.77
29505;BME280;16452;54.174;12.092;2022-08-18T04:55:50;100958.44;;;24.39;88.29
29505;BME280;16452;54.174;12.092;2022-08-18T04:58:18;100961.59;;;24.43;87.63
29505;BME280;16452;54.174;12.092;2022-08-18T05:00:56;100963.59;;;24.57;87.05
29505;BME280;16452;54.174;12.092;2022-08-18T05:03:22;100963.25;;;24.44;87.47
29505;BME280;16452;54.174;12.092;2022-08-18T05:05:55;100962.59;;;24.58;87.19
29505;BME280;16452;54.174;12.092;2022-08-18T05:08:23;100960.22;;;24.31;88.58
29505;BME280;16452;54.174;12.092;2022-08-18T05:10:54;100957.22;;;24.26;89.66
29505;BME280;16452;54.174;12.092;2022-08-18T05:13:20;100958.59;;;24.54;88.31
29505;BME280;16452;54.174;12.092;2022-08-18T05:15:53;100960.78;;;24.75;87.33
29505;BME280;16452;54.174;12.092;2022-08-18T05:18:19;100957.72;;;25.34;85.15
29505;BME280;16452;54.174;12.092;2022-08-18T05:20:50;100959.47;;;25.66;82.83
29505;BME280;16452;54.174;12.092;2022-08-18T05:23:18;100956.19;;;25.95;81.06
29505;BME280;16452;54.174;12.092;2022-08-18T05:25:44;100961.97;;;26.61;78.77
29505;BME280;16452;54.174;12.092;2022-08-18T05:28:10;100961.88;;;26.91;78.09
29505;BME280;16452;54.174;12.092;2022-08-18T05:30:35;100956.84;;;26.51;77.97
29505;BME280;16452;54.174;12.092;2022-08-18T05:33:02;100947.19;;;27.25;76.36
29505;BME280;16452;54.174;12.092;2022-08-18T05:35:37;100948.66;;;27.57;74.41
29505;BME280;16452;54.174;12.092;2022-08-18T05:44:22;100942.34;;;27.06;78.22
29505;BME280;16452;54.174;12.092;2022-08-18T05:47:02;100942.91;;;27.01;78.38
29505;BME280;16452;54.174;12.092;2022-08-18T05:49:29;100943.38;;;26.67;79.22
29505;BME280;16452;54.174;12.092;2022-08-18T05:52:02;100939.38;;;26.63;79.65
29505;BME280;16452;54.174;12.092;2022-08-18T05:54:38;100943.19;;;26.46;79.91
29505;BME280;16452;54.174;12.092;2022-08-18T05:57:29;100939.34;;;26.48;79.54
29505;BME280;16452;54.174;12.092;2022-08-18T05:59:56;100938.88;;;27.20;77.84
29505;BME280;16452;54.174;12.092;2022-08-18T06:02:54;100941.09;;;27.75;75.42
29505;BME280;16452;54.174;12.092;2022-08-18T06:05:35;100941.66;;;28.06;74.35
29505;BME280;16452;54.174;12.092;2022-08-18T06:08:13;100947.09;;;27.77;75.30
29505;BME280;16452;54.174;12.092;2022-08-18T06:10:45;100943.09;;;27.88;75.20
29505;BME280;16452;54.174;12.092;2022-08-18T06:13:12;100941.56;;;28.14;74.28
29505;BME280;16452;54.174;12.092;2022-08-18T06:15:51;100951.34;;;28.86;71.62
29505;BME280;16452;54.174;12.092;2022-08-18T06:18:44;100950.53;;;28.64;72.04
29505;BME280;16452;54.174;12.092;2022-08-18T06:21:55;100947.63;;;28.87;71.99
29505;BME280;16452;54.174;12.092;2022-08-18T06:24:43;100950.25;;;29.08;71.42
29505;BME280;16452;54.174;12.092;2022-08-18T06:27:37;100955.03;;;29.06;72.16
29505;BME280;16452;54.174;12.092;2022-08-18T06:30:21;100951.19;;;28.73;72.87
29505;BME280;16452;54.174;12.092;2022-08-18T06:36:02;100957.16;;;29.17;72.50
29505;BME280;16452;54.174;12.092;2022-08-18T06:38:56;100963.50;;;29.10;72.90
29505;BME280;16452;54.174;12.092;2022-08-18T06:41:37;100965.41;;;28.88;73.81
29505;BME280;16452;54.174;12.092;2022-08-18T06:51:16;100964.00;;;29.26;73.99
29505;BME280;16452;54.174;12.092;2022-08-18T06:53:54;100970.31;;;29.12;74.19
29505;BME280;16452;54.174;12.092;2022-08-18T07:05:00;100966.06;;;29.24;74.67
29505;BME280;16452;54.174;12.092;2022-08-18T07:07:41;100961.66;;;28.89;76.25
29505;BME280;16452;54.174;12.092;2022-08-18T07:10:27;100954.75;;;29.01;76.28
29505;BME280;16452;54.174;12.092;2022-08-18T07:15:41;100953.88;;;29.22;75.23
29505;BME280;16452;54.174;12.092;2022-08-18T07:18:24;100946.41;;;29.45;74.40
29505;BME280;16452;54.174;12.092;2022-08-18T07:20:58;100955.13;;;29.26;75.61
29505;BME280;16452;54.174;12.092;2022-08-18T07:23:37;100947.50;;;29.57;74.65
29505;BME280;16452;54.174;12.092;2022-08-18T07:26:13;100946.72;;;29.70;74.41
29505;BME280;16452;54.174;12.092;2022-08-18T07:28:46;100948.63;;;29.76;74.16
29505;BME280;16452;54.174;12.092;2022-08-18T07:31:44;100942.34;;;29.62;73.73
29505;BME280;16452;54.174;12.092;2022-08-18T07:34:37;100942.41;;;29.82;72.72
29505;BME280;16452;54.174;12.092;2022-08-18T07:37:29;100943.94;;;29.91;72.89
29505;BME280;16452;54.174;12.092;2022-08-18T07:40:35;100929.66;;;29.91;72.55
29505;BME280;16452;54.174;12.092;2022-08-18T07:43:16;100936.66;;;29.85;73.25
29505;BME280;16452;54.174;12.092;2022-08-18T07:45:46;100936.88;;;29.43;74.71
29505;BME280;16452;54.174;12.092;2022-08-18T07:48:24;100945.06;;;29.69;74.02
29505;BME280;16452;54.174;12.092;2022-08-18T07:51:24;100948.16;;;29.72;73.60
29505;BME280;16452;54.174;12.092;2022-08-18T07:54:38;100946.53;;;29.78;73.92
29505;BME280;16452;54.174;12.092;2022-08-18T07:57:26;100949.56;;;29.62;72.92
29505;BME280;16452;54.174;12.092;2022-08-18T08:00:18;100945.09;;;29.82;73.02
29505;BME280;16452;54.174;12.092;2022-08-18T08:09:02;100957.66;;;30.16;71.11
29505;BME280;16452;54.174;12.092;2022-08-18T08:11:57;100955.22;;;30.34;70.29
29505;BME280;16452;54.174;12.092;2022-08-18T08:14:40;100965.13;;;30.40;69.37
29505;BME280;16452;54.174;12.092;2022-08-18T08:17:29;100964.94;;;30.35;69.43
29505;BME280;16452;54.174;12.092;2022-08-18T08:23:47;100969.34;;;30.95;67.33
29505;BME280;16452;54.174;12.092;2022-08-18T08:29:37;100973.03;;;31.47;64.87
29505;BME280;16452;54.174;12.092;2022-08-18T08:35:04;100978.88;;;31.11;64.14
29505;BME280;16452;54.174;12.092;2022-08-18T08:37:50;100976.16;;;31.31;63.80
29505;BME280;16452;54.174;12.092;2022-08-18T08:40:25;100978.66;;;31.26;64.07
29505;BME280;16452;54.174;12.092;2022-08-18T08:43:03;100969.97;;;31.17;64.27
29505;BME280;16452;54.174;12.092;2022-08-18T08:46:10;100977.66;;;31.07;64.22
29505;BME280;16452;54.174;12.092;2022-08-18T08:48:54;100973.22;;;31.59;63.51
29505;BME280;16452;54.174;12.092;2022-08-18T08:54:13;100966.31;;;31.76;61.60
29505;BME280;16452;54.174;12.092;2022-08-18T08:56:45;100973.34;;;31.84;60.54
29505;BME280;16452;54.174;12.092;2022-08-18T08:59:17;100964.72;;;31.68;59.71
29505;BME280;16452;54.174;12.092;2022-08-18T09:04:51;100979.03;;;32.07;59.78
29505;BME280;16452;54.174;12.092;2022-08-18T09:08:51;100969.53;;;32.42;58.54
29505;BME280;16452;54.174;12.092;2022-08-18T09:14:14;100975.69;;;32.49;58.89
29505;BME280;16452;54.174;12.092;2022-08-18T09:22:55;100958.94;;;32.03;56.86
29505;BME280;16452;54.174;12.092;2022-08-18T09:30:42;100950.41;;;32.12;58.32
29505;BME280;16452;54.174;12.092;2022-08-18T09:48:37;100937.56;;;32.08;56.77
29505;BME280;16452;54.174;12.092;2022-08-18T09:56:13;100933.41;;;32.43;56.92
29505;BME280;16452;54.174;12.092;2022-08-18T09:58:56;100935.94;;;32.63;55.67
29505;BME280;16452;54.174;12.092;2022-08-18T10:06:41;100941.22;;;32.51;55.63
29505;BME280;16452;54.174;12.092;2022-08-18T10:09:30;100932.78;;;32.41;55.68
29505;BME280;16452;54.174;12.092;2022-08-18T10:12:20;100941.25;;;32.20;60.84
29505;BME280;16452;54.174;12.092;2022-08-18T10:15:30;100935.53;;;31.97;63.56
29505;BME280;16452;54.174;12.092;2022-08-18T10:18:44;100934.31;;;31.35;65.38
29505;BME280;16452;54.174;12.092;2022-08-18T10:21:27;100939.56;;;31.04;67.07
29505;BME280;16452;54.174;12.092;2022-08-18T10:24:13;100931.03;;;31.00;66.87
29505;BME280;16452;54.174;12.092;2022-08-18T10:34:49;100945.34;;;30.61;67.71
29505;BME280;16452;54.174;12.092;2022-08-18T10:40:16;100940.25;;;29.99;70.74
29505;BME280;16452;54.174;12.092;2022-08-18T10:43:19;100935.72;;;29.99;71.37
29505;BME280;16452;54.174;12.092;2022-08-18T10:45:51;100936.50;;;30.00;71.74
29505;BME280;16452;54.174;12.092;2022-08-18T10:48:25;100934.03;;;29.51;72.86
29505;BME280;16452;54.174;12.092;2022-08-18T10:51:17;100933.59;;;29.95;72.88
29505;BME280;16452;54.174;12.092;2022-08-18T10:57:03;100936.78;;;29.29;74.61
29505;BME280;16452;54.174;12.092;2022-08-18T10:59:40;100940.94;;;29.04;76.85
29505;BME280;16452;54.174;12.092;2022-08-18T11:04:48;100952.06;;;29.01;76.67
29505;BME280;16452;54.174;12.092;2022-08-18T11:07:28;100951.41;;;29.27;75.93
29505;BME280;16452;54.174;12.092;2022-08-18T11:09:56;100960.16;;;28.80;77.85
29505;BME280;16452;54.174;12.092;2022-08-18T11:15:29;100962.50;;;28.89;78.19
29505;BME280;16452;54.174;12.092;2022-08-18T11:20:52;100974.34;;;28.52;79.19
29505;BME280;16452;54.174;12.092;2022-08-18T11:23:19;100979.44;;;28.47;80.38
29505;BME280;16452;54.174;12.092;2022-08-18T11:25:45;100983.75;;;28.48;80.23
29505;BME280;16452;54.174;12.092;2022-08-18T11:28:18;100984.53;;;28.42;80.77
29505;BME280;16452;54.174;12.092;2022-08-18T11:30:47;100982.94;;;28.27;81.22
29505;BME280;16452;54.174;12.092;2022-08-18T11:33:17;100975.06;;;27.74;83.84
29505;BME280;16452;54.174;12.092;2022-08-18T11:35:53;100981.06;;;27.62;84.56
29505;BME280;16452;54.174;12.092;2022-08-18T11:38:24;100970.06;;;27.27;86.13
29505;BME280;16452;54.174;12.092;2022-08-18T11:41:09;100973.13;;;27.24;87.37
29505;BME280;16452;54.174;12.092;2022-08-18T11:43:37;100975.03;;;27.45;86.28
29505;BME280;16452;54.174;12.092;2022-08-18T11:48:48;100970.84;;;27.65;84.82
29505;BME280;16452;54.174;12.092;2022-08-18T11:54:01;100975.25;;;27.88;83.04
29505;BME280;16452;54.174;12.092;2022-08-18T11:56:35;100973.22;;;28.26;81.43
29505;BME280;16452;54.174;12.092;2022-08-18T12:01:57;100967.78;;;28.76;78.37
29505;BME280;16452;54.174;12.092;2022-08-18T12:04:39;100978.59;;;28.68;78.42
29505;BME280;16452;54.174;12.092;2022-08-18T12:07:08;100975.94;;;28.47;79.35
29505;BME280;16452;54.174;12.092;2022-08-18T12:09:43;100976.31;;;28.44;79.51
29505;BME280;16452;54.174;12.092;2022-08-18T12:12:25;100966.91;;;28.54;78.67
29505;BME280;16452;54.174;12.092;2022-08-18T12:17:37;100983.16;;;27.96;82.64
29505;BME280;16452;54.174;12.092;2022-08-18T12:20:04;100982.78;;;27.99;83.28
29505;BME280;16452;54.174;12.092;2022-08-18T12:22:40;100975.69;;;27.47;84.81
29505;BME280;16452;54.174;12.092;2022-08-18T12:25:11;100979.94;;;27.27;85.80
29505;BME280;16452;54.174;12.092;2022-08-18T12:27:38;100976.13;;;27.21;86.14
29505;BME280;16452;54.174;12.092;2022-08-18T12:30:05;100977.97;;;27.06;86.73
29505;BME280;16452;54.174;12.092;2022-08-18T12:32:33;100982.94;;;27.09;87.14
29505;BME280;16452;54.174;12.092;2022-08-18T12:35:00;100973.50;;;27.36;85.45
29505;BME280;16452;54.174;12.092;2022-08-18T12:37:28;100976.78;;;26.86;88.16
29505;BME280;16452;54.174;12.092;2022-08-18T12:39:56;100974.63;;;26.67;88.19
29505;BME280;16452;54.174;12.092;2022-08-18T12:42:23;100974.41;;;27.28;86.43
29505;BME280;16452;54.174;12.092;2022-08-18T12:44:49;100979.84;;;27.50;84.97
29505;BME280;16452;54.174;12.092;2022-08-18T12:47:19;100973.31;;;27.67;83.68
29505;BME280;16452;54.174;12.092;2022-08-18T12:49:47;100976.53;;;27.18;85.91
29505;BME280;16452;54.174;12.092;2022-08-18T12:52:13;100968.34;;;26.74;87.57
29505;BME280;16452;54.174;12.092;2022-08-18T12:54:40;100964.38;;;26.70;87.79
29505;BME280;16452;54.174;12.092;2022-08-18T12:57:20;100967.06;;;26.70;87.68
29505;BME280;16452;54.174;12.092;2022-08-18T12:59:46;100971.22;;;26.95;87.77
29505;BME280;16452;54.174;12.092;2022-08-18T13:02:12;100977.53;;;27.17;86.70
29505;BME280;16452;54.174;12.092;2022-08-18T13:04:38;100964.97;;;27.18;84.99
29505;BME280;16452;54.174;12.092;2022-08-18T13:07:04;100964.06;;;27.25;84.36
29505;BME280;16452;54.174;12.092;2022-08-18T13:09:36;100972.25;;;27.09;85.50
29505;BME280;16452;54.174;12.092;2022-08-18T13:12:05;100963.75;;;27.20;85.82
29505;BME280;16452;54.174;12.092;2022-08-18T13:14:32;100961.34;;;26.96;85.81
29505;BME280;16452;54.174;12.092;2022-08-18T13:16:58;100961.25;;;26.89;86.54
29505;BME280;16452;54.174;12.092;2022-08-18T13:19:24;100957.56;;;26.90;86.08
29505;BME280;16452;54.174;12.092;2022-08-18T13:21:50;100962.81;;;26.98;85.59
29505;BME280;16452;54.174;12.092;2022-08-18T13:24:16;100959.41;;;26.67;87.31
29505;BME280;16452;54.174;12.092;2022-08-18T13:26:45;100959.97;;;27.00;85.20
29505;BME280;16452;54.174;12.092;2022-08-18T13:29:15;100957.75;;;27.04;84.43
29505;BME280;16452;54.174;12.092;2022-08-18T13:31:42;100951.69;;;27.24;83.18
29505;BME280;16452;54.174;12.092;2022-08-18T13:34:09;100950.59;;;27.33;82.63
29505;BME280;16452;54.174;12.092;2022-08-18T13:36:35;100943.66;;;27.39;82.83
29505;BME280;16452;54.174;12.092;2022-08-18T13:39:16;100949.41;;;27.51;83.23
29505;BME280;16452;54.174;12.092;2022-08-18T13:41:43;100956.75;;;27.05;84.90
29505;BME280;16452;54.174;12.092;2022-08-18T13:44:11;100945.63;;;27.30;83.57
29505;BME280;16452;54.174;12.092;2022-08-18T13:46:38;100944.13;;;27.43;80.06
29505;BME280;16452;54.174;12.092;2022-08-18T13:49:17;100942.53;;;27.92;80.22
29505;BME280;16452;54.174;12.092;2022-08-18T13:51:45;100942.97;;;27.60;81.08
29505;BME280;16452;54.174;12.092;2022-08-18T13:54:24;100941.09;;;27.31;82.46
29505;BME280;16452;54.174;12.092;2022-08-18T13:56:51;100945.66;;;26.93;85.22
29505;BME280;16452;54.174;12.092;2022-08-18T13:59:19;100941.56;;;27.20;83.56
29505;BME280;16452;54.174;12.092;2022-08-18T14:01:47;100942.34;;;27.06;83.57
29505;BME280;16452;54.174;12.092;2022-08-18T14:04:14;100945.09;;;26.97;83.65
29505;BME280;16452;54.174;12.092;2022-08-18T14:06:41;100940.63;;;27.13;83.99
29505;BME280;16452;54.174;12.092;2022-08-18T14:09:07;100930.91;;;27.26;83.04
29505;BME280;16452;54.174;12.092;2022-08-18T14:11:34;100940.72;;;27.49;81.89
29505;BME280;16452;54.174;12.092;2022-08-18T14:14:05;100933.97;;;27.67;81.33
29505;BME280;16452;54.174;12.092;2022-08-18T14:16:33;100933.34;;;27.65;81.48
29505;BME280;16452;54.174;12.092;2022-08-18T14:19:00;100926.56;;;27.84;80.41
29505;BME280;16452;54.174;12.092;2022-08-18T14:21:48;100923.19;;;27.97;80.11
29505;BME280;16452;54.174;12.092;2022-08-18T14:24:33;100922.75;;;27.93;78.67
29505;BME280;16452;54.174;12.092;2022-08-18T14:27:29;100925.53;;;27.85;80.02
29505;BME280;16452;54.174;12.092;2022-08-18T14:29:58;100931.81;;;27.92;79.62
29505;BME280;16452;54.174;12.092;2022-08-18T14:32:25;100930.28;;;28.04;79.51
29505;BME280;16452;54.174;12.092;2022-08-18T14:34:52;100930.78;;;27.93;79.61
29505;BME280;16452;54.174;12.092;2022-08-18T14:37:19;100929.31;;;27.91;79.96
29505;BME280;16452;54.174;12.092;2022-08-18T14:39:45;100934.06;;;27.74;80.18
29505;BME280;16452;54.174;12.092;2022-08-18T14:42:15;100934.44;;;27.56;81.57
29505;BME280;16452;54.174;12.092;2022-08-18T14:44:44;100934.19;;;27.36;83.31
29505;BME280;16452;54.174;12.092;2022-08-18T14:47:10;100939.81;;;27.42;82.95
29505;BME280;16452;54.174;12.092;2022-08-18T14:49:36;100940.06;;;27.32;83.31
29505;BME280;16452;54.174;12.092;2022-08-18T14:52:06;100930.75;;;27.28;84.23
29505;BME280;16452;54.174;12.092;2022-08-18T14:54:32;100935.91;;;27.44;82.98
29505;BME280;16452;54.174;12.092;2022-08-18T14:57:00;100929.94;;;27.57;83.28
29505;BME280;16452;54.174;12.092;2022-08-18T14:59:31;100938.69;;;27.36;83.11
29505;BME280;16452;54.174;12.092;2022-08-18T15:01:59;100927.41;;;27.26;83.65
29505;BME280;16452;54.174;12.092;2022-08-18T15:04:25;100938.78;;;27.43;84.04
29505;BME280;16452;54.174;12.092;2022-08-18T15:06:54;100935.75;;;27.31;83.75
29505;BME280;16452;54.174;12.092;2022-08-18T15:09:20;100938.34;;;27.54;82.75
29505;BME280;16452;54.174;12.092;2022-08-18T15:11:47;100937.22;;;27.63;82.79
29505;BME280;16452;54.174;12.092;2022-08-18T15:14:14;100939.63;;;27.58;82.74